Lunenburg, MA

3:04 PM EST on January 30, 2015 (GMT -0500)
Whalom Lake | Change Station
CLOSE
Current Station
Personal Weather Station
Location: Lunenburg, MA
Elevation: 548 ft
Nearby Weather Stations
Active Advisory: Wind Chill Advisory Active Notice: Public Information Statement

Elev 548 ft 42.57 °N, 71.74 °W | Updated 6 seconds ago

Overcast
Overcast
32.2 °F
Feels Like 27 °F
N
5.8
Wind Variable Wind from NW
Gusts 7.4 mph

Today
High -- | Low -- °F
--% Chance of Precip.
Yesterday
High -- | Low -- °F
Precip. -- in
7:03 AM 4:57 PM
Waxing Gibbous, 84% visible
Pressure 29.74 in
Visibility 10.0 miles
Clouds Overcast 2600 ft
Windchill 27 °F
Dew Point 23 °F
Humidity 69%
Rainfall 0.00 in
Snow Depth Not available.
UV 1.0 out of 12
Pollen .10 out of 12
Air Quality Not available.
Flu Activity Not available.
METAR KFIT 301952Z AUTO 33006KT 10SM OVC026 01/M04 A2972 RMK AO2 SLP070 T00111039

More Conditions Fewer Conditions

Pressure 29.74 in
Visibility 10.0 miles
Clouds Overcast 2600 ft
Windchill 27 °F
Dew Point 23 °F
Humidity 69%
Rainfall 0.00 in
Snow Depth Not available.
UV 1.0 out of 12
Pollen .10 out of 12
Air Quality Not available.
Flu Activity Not available.
METAR KFIT 301952Z AUTO 33006KT 10SM OVC026 01/M04 A2972 RMK AO2 SLP070 T00111039

More Conditions Fewer Conditions

10-Day Weather Forecast

Almanac

Astronomy

Jan. 30, 2015 Rise Set
Actual Time
Civil Twilight
Nautical Twilight
Astronomical Twilight
Moon
Length of Visible Light
Length of Day
Tomorrow will be .
, % of the Moon is Illuminated

Today's Extremes

State Highs State Lows

Community

WunderPhotos

Upload Photos

1,791,882 photos uploaded!

WunderBlogs® & News

Nearby

Air Quality

  Air Quality AQ Index Pollutant
Not available.

Snow Depth

Station Depth Elevation

Earthquake Activity

City Distance Mag. Time & Date
Minimum magnitude displayed is 2.5.

Coastal Water Temperatures

Place Temperature

Nearby Weather Stations